Stations météo

réclame
Mon MeteoGroup
Lycksele, Suède (2262): Température de l'air & dewpoint: 14.04.2018 21:00:00 - 20.04.2018 21:00:00 (CEST)Lycksele, Suède (2262): Vitesse du vent: 14.04.2018 21:00:00 - 20.04.2018 21:00:00 (CEST)Lycksele, Suède (2262): Direction du vent: 14.04.2018 21:00:00 - 20.04.2018 21:00:00 (CEST)Lycksele, Suède (2262): visibility: 14.04.2018 21:00:00 - 20.04.2018 21:00:00 (CEST)
Date & Time tt [°C] td [°C] ff [km/h] ff [knt] dd vv [km]
20.04.2018 21:00:00 3,0 -1,0 5 3 WNW 10
20.04.2018 20:00:00 7,0 0,0 8 4 WNW 10
20.04.2018 19:00:00 9,0 0,0 11 6 W 10
20.04.2018 18:00:00 10,0 0,0 11 6 W 10
20.04.2018 17:00:00 10,0 0,0 15 8 W 10
20.04.2018 16:00:00 10,0 1,0 15 8 W 10
20.04.2018 15:00:00 11,0 1,0 13 7 W 10
20.04.2018 14:00:00 9,0 0,0 15 8 NW 10
20.04.2018 13:00:00 10,0 2,0 15 8 NW 10
20.04.2018 12:00:00 11,0 2,0 13 7 W 10
20.04.2018 11:00:00 10,0 3,0 13 7 WNW 10
20.04.2018 10:00:00 8,0 4,0 5 3 W 10
20.04.2018 09:00:00 5,0 3,0 0 0 N 10
20.04.2018 08:00:00 3,0 2,0 2 1 - 10
20.04.2018 07:00:00 2,0 1,0 0 0 N 10
20.04.2018 06:00:00 2,0 1,0 0 0 N 10
20.04.2018 05:00:00 3,0 1,0 8 4 SSE 10
20.04.2018 04:00:00 2,0 0,0 5 3 SSE 10
20.04.2018 03:00:00 2,0 0,0 4 2 - 9
20.04.2018 02:00:00 2,0 0,0 4 2 NW 10
20.04.2018 01:00:00 2,0 0,0 4 2 SE 10
20.04.2018 00:00:00 1,0 -1,0 0 0 N 10
19.04.2018 23:00:00 2,0 -1,0 5 3 SE 10
19.04.2018 22:00:00 2,0 -1,0 4 2 SSE 10
19.04.2018 21:00:00 3,0 0,0 0 0 N 10
19.04.2018 20:00:00 4,0 0,0 2 1 SE 10
19.04.2018 19:00:00 6,0 1,0 2 1 - 10
19.04.2018 18:00:00 7,0 1,0 0 0 N 10
19.04.2018 17:00:00 11,0 1,0 13 7 NW 10
19.04.2018 16:00:00 10,0 1,0 15 8 NW 10
19.04.2018 15:00:00 11,0 1,0 18 10 NW 10
19.04.2018 14:00:00 10,0 1,0 15 8 NW 10
19.04.2018 13:00:00 10,0 1,0 22 12 NW 10
19.04.2018 12:00:00 9,0 1,0 24 13 WNW 10
19.04.2018 11:00:00 8,0 1,0 22 12 WNW 10
19.04.2018 10:00:00 8,0 2,0 22 12 WNW 10
19.04.2018 09:00:00 7,0 2,0 18 10 WNW 10
19.04.2018 08:00:00 6,0 1,0 18 10 NW 10
19.04.2018 07:00:00 4,0 1,0 8 4 W 10
19.04.2018 06:00:00 2,0 0,0 5 3 WNW 10
19.04.2018 05:00:00 4,0 0,0 11 6 WNW 10
19.04.2018 04:00:00 2,0 -1,0 5 3 W 10
19.04.2018 03:00:00 4,0 0,0 5 3 NW 10
19.04.2018 02:00:00 4,0 0,0 9 5 WNW 10
19.04.2018 01:00:00 4,0 0,0 9 5 WNW 10
19.04.2018 00:00:00 4,0 1,0 5 3 WNW 10
18.04.2018 23:00:00 2,0 0,0 0 0 N 10
18.04.2018 22:00:00 3,0 0,0 0 0 N 10
18.04.2018 21:00:00 6,0 2,0 4 2 - 10
18.04.2018 20:00:00 5,0 0,0 9 5 W 10
18.04.2018 19:00:00 9,0 1,0 13 7 W 10
18.04.2018 18:00:00 11,0 1,0 11 6 SW 10
18.04.2018 17:00:00 10,0 1,0 9 5 W 10
18.04.2018 16:00:00 10,0 0,0 5 3 W 10
18.04.2018 15:00:00 10,0 -1,0 9 5 SW 10
18.04.2018 14:00:00 11,0 -3,0 13 7 SSW 10
18.04.2018 13:00:00 12,0 -4,0 13 7 S 10
18.04.2018 12:00:00 12,0 -4,0 9 5 SE 10
18.04.2018 11:00:00 10,0 -3,0 0 0 N 10
18.04.2018 10:00:00 7,0 -2,0 0 0 N 10
18.04.2018 09:00:00 6,0 -3,0 0 0 N 10
18.04.2018 08:00:00 1,0 -5,0 0 0 N 10
18.04.2018 07:00:00 -4,0 -8,0 0 0 N 10
18.04.2018 06:00:00 -8,0 -9,0 0 0 N 10
18.04.2018 05:00:00 -8,0 -9,0 0 0 N 10
18.04.2018 04:00:00 -6,0 -8,0 0 0 N 10
18.04.2018 03:00:00 -6,0 -8,0 0 0 N 10
18.04.2018 02:00:00 -5,0 -6,0 0 0 N 10
18.04.2018 01:00:00 -4,0 -6,0 0 0 N 10
18.04.2018 00:00:00 -3,0 -5,0 0 0 N 10
17.04.2018 23:00:00 -2,0 -5,0 0 0 N 10
17.04.2018 22:00:00 0,0 -4,0 0 0 N 10
17.04.2018 21:00:00 2,0 -4,0 2 1 - 10
17.04.2018 20:00:00 6,0 -2,0 0 0 N 10
17.04.2018 19:00:00 10,0 -2,0 5 3 - 10
17.04.2018 18:00:00 13,0 -5,0 5 3 - 10
17.04.2018 17:00:00 14,0 -5,0 8 4 ENE 10
17.04.2018 16:00:00 14,0 -3,0 5 3 ENE 10
17.04.2018 15:00:00 12,0 -5,0 5 3 N 10
17.04.2018 14:00:00 12,0 -5,0 8 4 NNE 10
17.04.2018 13:00:00 9,0 -2,0 8 4 NW 10
17.04.2018 12:00:00 8,0 -3,0 8 4 WNW 10
17.04.2018 11:00:00 7,0 -3,0 8 4 NW 10
17.04.2018 10:00:00 6,0 -3,0 5 3 NW 10
17.04.2018 09:00:00 2,0 -3,0 8 4 NW 10
17.04.2018 08:00:00 0,0 -4,0 8 4 NW 10
17.04.2018 07:00:00 -1,0 -4,0 9 5 NW 10
17.04.2018 06:00:00 -2,0 -4,0 4 2 NW 10
17.04.2018 05:00:00 -3,0 -5,0 4 2 W 10
17.04.2018 04:00:00 -1,0 -4,0 4 2 W 10
17.04.2018 03:00:00 1,0 -3,0 5 3 WNW 10
17.04.2018 02:00:00 1,0 -3,0 5 3 WNW 10
17.04.2018 01:00:00 0,0 -3,0 5 3 WNW 10
17.04.2018 00:00:00 -1,0 -3,0 0 0 N 10
16.04.2018 23:00:00 -2,0 -4,0 0 0 N 10
16.04.2018 22:00:00 0,0 -3,0 0 0 N 10
16.04.2018 21:00:00 1,0 -3,0 0 0 N 10
16.04.2018 20:00:00 4,0 -1,0 2 1 E 10
16.04.2018 19:00:00 10,0 0,0 5 3 SE 10
16.04.2018 18:00:00 11,0 2,0 8 4 SE 10
16.04.2018 17:00:00 10,0 -3,0 5 3 ESE 10
16.04.2018 16:00:00 14,0 1,0 4 2 SE 10
16.04.2018 15:00:00 11,0 -2,0 0 0 N 10
16.04.2018 14:00:00 12,0 -3,0 5 3 SSE 10
16.04.2018 13:00:00 11,0 -5,0 4 2 - 10
16.04.2018 12:00:00 12,0 -3,0 4 2 WSW 10
16.04.2018 11:00:00 6,0 -2,0 5 3 NW 10
16.04.2018 10:00:00 4,0 -4,0 5 3 NNW 10
16.04.2018 09:00:00 0,0 -5,0 5 3 NNW 10
16.04.2018 08:00:00 -2,0 -5,0 5 3 NNW 10
16.04.2018 07:00:00 -7,0 -8,0 4 2 NW 10
16.04.2018 06:00:00 -8,0 -10,0 4 2 WNW 10
16.04.2018 05:00:00 -8,0 -9,0 4 2 WNW 10
16.04.2018 04:00:00 -8,0 -9,0 2 1 - 10
16.04.2018 03:00:00 -6,0 -8,0 0 0 N 10
16.04.2018 02:00:00 -6,0 -8,0 0 0 N 10
16.04.2018 01:00:00 -5,0 -7,0 0 0 N 10
16.04.2018 00:00:00 -4,0 -6,0 0 0 N 10
15.04.2018 23:00:00 -3,0 -5,0 0 0 N 10
15.04.2018 22:00:00 -2,0 -5,0 0 0 N 10
15.04.2018 21:00:00 0,0 -4,0 0 0 N 10
15.04.2018 20:00:00 3,0 -2,0 0 0 N 10
15.04.2018 19:00:00 6,0 -2,0 5 3 SE 10
15.04.2018 18:00:00 9,0 -4,0 9 5 SE 10
15.04.2018 17:00:00 9,0 -4,0 9 5 SE 10
15.04.2018 16:00:00 8,0 -4,0 9 5 SE 10
15.04.2018 15:00:00 8,0 -4,0 5 3 - 10
15.04.2018 14:00:00 12,0 -5,0 8 4 E 10
15.04.2018 13:00:00 7,0 -6,0 5 3 N 10
15.04.2018 12:00:00 7,0 -6,0 5 3 NNE 10
15.04.2018 11:00:00 6,0 -6,0 8 4 NE 10
15.04.2018 10:00:00 4,0 -5,0 9 5 NNW 10
15.04.2018 09:00:00 2,0 -6,0 8 4 NW 10
15.04.2018 08:00:00 -2,0 -7,0 2 1 NNW 10
15.04.2018 07:00:00 -5,0 -9,0 5 3 W 10
15.04.2018 06:00:00 -9,0 -11,0 2 1 - 10
15.04.2018 05:00:00 -8,0 -10,0 2 1 - 10
15.04.2018 04:00:00 -8,0 -10,0 2 1 - 10
15.04.2018 03:00:00 -8,0 -10,0 0 0 N 10
15.04.2018 02:00:00 -6,0 -9,0 0 0 N 10
15.04.2018 01:00:00 -6,0 -9,0 0 0 N 10
15.04.2018 00:00:00 -5,0 -9,0 0 0 N 10
14.04.2018 23:00:00 -3,0 -7,0 0 0 N 10
14.04.2018 22:00:00 -2,0 -6,0 0 0 N 10
14.04.2018 21:00:00 0,0 -5,0 2 1 WNW 10

tt = Température de l'air
td = dewpoint
ff = Vitesse du vent
dd = Direction du vent
vv = visibility

stations d'obs. à proximité